Time;durP1;ratioP1;P1;durP2;ratioP2;P2;SDS_P1;SDS_P2;PMS_P1;PMS_P2;Temp;Humidity;BMP_temperature;BMP_pressure;BME280_temperature;BME280_humidity;BME280_pressure;Samples;Min_cycle;Max_cycle;Signal;HPM_P1;HPM_P2
2021/08/29 00:00:47;;;;;;;4.30;1.90;;;11.60;99.90;;;;;;5039834;28;20040;-83
2021/08/29 00:03:12;;;;;;;1.60;1.50;;;11.60;99.90;;;;;;5041562;28;20025;-87
2021/08/29 00:05:38;;;;;;;2.60;2.22;;;11.60;99.90;;;;;;5027393;28;20074;-84
2021/08/29 00:08:04;;;;;;;2.00;1.80;;;11.60;99.90;;;;;;5029027;28;20025;-83
2021/08/29 00:10:29;;;;;;;2.25;1.80;;;11.60;99.90;;;;;;5038149;28;20039;-83
2021/08/29 00:12:55;;;;;;;1.98;1.70;;;11.60;99.90;;;;;;4983119;28;20021;-84
2021/08/29 00:15:21;;;;;;;2.05;1.83;;;11.60;99.90;;;;;;5043778;28;20032;-82
2021/08/29 00:17:47;;;;;;;2.33;2.05;;;11.60;99.90;;;;;;5044913;28;20487;-83
2021/08/29 00:20:13;;;;;;;3.75;1.80;;;11.60;99.90;;;;;;5023465;28;20499;-82
2021/08/29 00:22:38;;;;;;;1.73;1.63;;;11.60;99.90;;;;;;5013188;28;20026;-83
2021/08/29 00:25:05;;;;;;;2.33;1.90;;;11.60;99.90;;;;;;5040241;28;20112;-83
2021/08/29 00:27:30;;;;;;;1.63;1.45;;;11.60;99.90;;;;;;5045510;28;20021;-84
2021/08/29 00:29:56;;;;;;;1.92;1.77;;;11.60;99.90;;;;;;5035676;28;20087;-83
2021/08/29 00:32:22;;;;;;;2.13;1.92;;;11.50;99.90;;;;;;5026293;28;20100;-83
2021/08/29 00:34:48;;;;;;;2.35;1.80;;;11.50;99.90;;;;;;5010067;28;20033;-84
2021/08/29 00:37:13;;;;;;;2.20;2.03;;;11.50;99.90;;;;;;5018119;28;20030;-83
2021/08/29 00:39:39;;;;;;;2.58;2.10;;;11.50;99.90;;;;;;5019008;28;20053;-83
2021/08/29 00:42:08;;;;;;;2.35;1.80;;;11.50;99.90;;;;;;4997794;28;20075;-84
2021/08/29 00:44:37;;;;;;;1.63;1.52;;;11.50;99.90;;;;;;4999146;28;20033;-84
2021/08/29 00:47:07;;;;;;;1.60;1.40;;;11.50;99.90;;;;;;5011148;28;20026;-83
2021/08/29 00:49:40;;;;;;;1.90;1.55;;;11.50;99.90;;;;;;5027570;28;20033;-83
2021/08/29 00:52:06;;;;;;;1.90;1.70;;;11.50;99.90;;;;;;5043186;28;20036;-83
2021/08/29 00:54:33;;;;;;;2.08;1.85;;;11.50;99.90;;;;;;5018590;28;20029;-83
2021/08/29 00:57:03;;;;;;;1.60;1.50;;;11.50;99.90;;;;;;5025227;28;20045;-83
2021/08/29 00:59:30;;;;;;;2.08;1.77;;;11.40;99.90;;;;;;5019408;28;20029;-84
2021/08/29 01:02:02;;;;;;;2.60;2.10;;;11.40;99.90;;;;;;5018047;28;20067;-83
2021/08/29 01:04:59;;;;;;;1.48;1.20;;;11.40;99.90;;;;;;5019351;28;20025;-82
2021/08/29 01:07:30;;;;;;;2.28;1.70;;;11.40;99.90;;;;;;5002663;28;20049;-83
2021/08/29 01:10:03;;;;;;;1.60;1.50;;;11.40;99.90;;;;;;5016824;28;20026;-84
2021/08/29 01:13:02;;;;;;;1.60;1.50;;;11.40;99.90;;;;;;5009047;28;20674;-83
2021/08/29 01:15:31;;;;;;;4.60;1.38;;;11.30;99.90;;;;;;5025958;28;20025;-83
2021/08/29 01:17:58;;;;;;;1.70;1.60;;;11.30;99.90;;;;;;5017141;28;20032;-82
2021/08/29 01:20:37;;;;;;;2.10;1.60;;;11.40;99.90;;;;;;5040217;28;20063;-83
2021/08/29 01:23:06;;;;;;;1.65;1.55;;;11.30;99.90;;;;;;5049028;28;20017;-83
2021/08/29 01:25:35;;;;;;;1.80;1.70;;;11.30;99.90;;;;;;5041614;28;20162;-83
2021/08/29 01:28:04;;;;;;;2.38;2.08;;;11.40;99.90;;;;;;5024729;28;20034;-82
2021/08/29 01:30:30;;;;;;;1.60;1.50;;;11.30;99.90;;;;;;5018432;28;20025;-83
2021/08/29 01:32:58;;;;;;;2.47;1.48;;;11.30;99.90;;;;;;5027722;28;20030;-83
2021/08/29 01:35:25;;;;;;;1.63;1.52;;;11.30;99.90;;;;;;5009469;28;20025;-83
2021/08/29 01:38:12;;;;;;;2.25;1.83;;;11.30;99.90;;;;;;5031721;28;20069;-83
2021/08/29 01:40:39;;;;;;;3.45;1.50;;;11.30;99.90;;;;;;5016606;28;20029;-83
2021/08/29 01:43:05;;;;;;;2.00;1.90;;;11.30;99.90;;;;;;5040432;28;20087;-83
2021/08/29 01:45:33;;;;;;;2.10;1.83;;;11.30;99.90;;;;;;5032860;28;20057;-83
2021/08/29 01:47:59;;;;;;;1.88;1.60;;;11.30;99.90;;;;;;5042251;28;20101;-85
2021/08/29 01:50:34;;;;;;;2.83;1.55;;;11.30;99.90;;;;;;5000131;28;20037;-83
2021/08/29 01:53:06;;;;;;;1.98;1.55;;;11.30;99.90;;;;;;5023449;28;20517;-84
2021/08/29 01:55:52;;;;;;;3.15;2.05;;;11.30;99.90;;;;;;5032117;28;20059;-84
2021/08/29 01:58:39;;;;;;;1.48;1.38;;;11.30;99.90;;;;;;5003268;28;20090;-84
2021/08/29 02:01:10;;;;;;;1.63;1.50;;;11.30;99.90;;;;;;5035764;28;20040;-84
2021/08/29 02:03:38;;;;;;;1.45;1.35;;;11.30;99.90;;;;;;5029351;28;20033;-83
2021/08/29 02:06:32;;;;;;;1.50;1.40;;;11.30;99.90;;;;;;5031971;28;20029;-85
2021/08/29 02:09:07;;;;;;;2.58;1.75;;;11.30;99.90;;;;;;4993619;28;20103;-84
2021/08/29 02:11:42;;;;;;;1.90;1.50;;;11.40;99.90;;;;;;5033462;28;20029;-84
2021/08/29 02:14:14;;;;;;;1.55;1.45;;;11.40;99.90;;;;;;5024066;28;20663;-85
2021/08/29 02:16:43;;;;;;;1.88;1.42;;;11.40;99.90;;;;;;5034691;28;20445;-84
2021/08/29 02:19:12;;;;;;;1.42;1.33;;;11.40;99.90;;;;;;5020401;28;20033;-83
2021/08/29 02:21:40;;;;;;;1.98;1.33;;;11.40;99.90;;;;;;5031620;28;20038;-84
2021/08/29 02:24:08;;;;;;;2.60;1.60;;;11.40;99.90;;;;;;5017222;28;20029;-83
2021/08/29 02:26:34;;;;;;;1.70;1.60;;;11.40;99.90;;;;;;5021021;28;20032;-84
2021/08/29 02:29:09;;;;;;;;;;;11.40;99.90;;;;;;5034786;28;20506;-83
2021/08/29 02:31:36;;;;;;;2.85;1.55;;;11.40;99.90;;;;;;5019921;28;20352;-84
2021/08/29 02:34:03;;;;;;;1.58;1.48;;;11.50;99.90;;;;;;5033574;28;20041;-83
2021/08/29 02:36:30;;;;;;;3.15;1.90;;;11.50;99.90;;;;;;5019937;28;20029;-83
2021/08/29 02:38:59;;;;;;;3.85;2.28;;;11.40;99.90;;;;;;5018397;28;20030;-84
2021/08/29 02:41:26;;;;;;;2.17;1.98;;;11.40;99.90;;;;;;5026459;28;20495;-84
2021/08/29 02:43:56;;;;;;;2.55;1.98;;;11.40;99.90;;;;;;5029325;28;20026;-83
2021/08/29 02:46:23;;;;;;;2.30;2.10;;;11.40;99.90;;;;;;5021969;28;20552;-82
2021/08/29 02:48:49;;;;;;;3.15;2.03;;;11.50;99.90;;;;;;5022921;28;20116;-84
2021/08/29 02:51:16;;;;;;;2.38;2.05;;;11.50;99.90;;;;;;5050098;28;20040;-82
2021/08/29 02:53:45;;;;;;;2.78;2.05;;;11.50;99.90;;;;;;5034004;28;20025;-84
2021/08/29 02:56:12;;;;;;;2.33;1.95;;;11.50;99.90;;;;;;5034644;28;20034;-83
2021/08/29 02:58:40;;;;;;;2.38;2.10;;;11.50;99.90;;;;;;5033825;28;20029;-83
2021/08/29 03:01:16;;;;;;;4.75;1.95;;;11.60;99.90;;;;;;5016414;28;20470;-83
2021/08/29 03:04:01;;;;;;;3.55;2.08;;;11.60;99.90;;;;;;5024059;28;20565;-82
2021/08/29 03:06:31;;;;;;;2.20;1.98;;;11.50;99.90;;;;;;5030652;28;20047;-82
2021/08/29 03:08:58;;;;;;;2.92;2.17;;;11.60;99.90;;;;;;5018623;28;20056;-83
2021/08/29 03:11:24;;;;;;;2.53;2.33;;;11.60;99.90;;;;;;5015017;28;20040;-83
2021/08/29 03:13:51;;;;;;;2.00;1.80;;;11.60;99.90;;;;;;5029434;28;20021;-82
2021/08/29 03:16:18;;;;;;;2.95;2.60;;;11.60;99.90;;;;;;5013603;28;20048;-83
2021/08/29 03:18:46;;;;;;;3.05;2.50;;;11.60;99.90;;;;;;5005034;28;20025;-82
2021/08/29 03:21:35;;;;;;;2.53;2.33;;;11.60;99.90;;;;;;5016371;28;20159;-82
2021/08/29 03:24:01;;;;;;;2.30;2.10;;;11.60;99.90;;;;;;5037107;28;20017;-83
2021/08/29 03:26:27;;;;;;;2.55;2.28;;;11.60;99.90;;;;;;5002505;28;20017;-83
2021/08/29 03:28:57;;;;;;;3.63;2.72;;;11.60;99.90;;;;;;5044992;28;20030;-83
2021/08/29 03:31:23;;;;;;;6.10;3.10;;;11.60;99.90;;;;;;5026332;28;20029;-82
2021/08/29 03:33:52;;;;;;;3.25;2.53;;;11.60;99.90;;;;;;5028576;28;20107;-83
2021/08/29 03:36:23;;;;;;;3.35;3.05;;;11.60;99.90;;;;;;5033548;28;20033;-84
2021/08/29 03:38:50;;;;;;;3.83;2.90;;;11.60;99.90;;;;;;5035384;28;20030;-82
2021/08/29 03:41:18;;;;;;;4.05;3.30;;;11.60;99.90;;;;;;5018672;28;20499;-83
2021/08/29 03:43:45;;;;;;;5.32;3.20;;;11.70;99.90;;;;;;5029196;28;20040;-83
2021/08/29 03:46:13;;;;;;;3.65;3.13;;;11.70;99.90;;;;;;5012160;28;20545;-84
2021/08/29 03:48:40;;;;;;;6.00;3.58;;;11.70;99.90;;;;;;5031698;28;20132;-82
2021/08/29 03:51:08;;;;;;;5.45;3.53;;;11.60;99.90;;;;;;4995120;28;20033;-83
2021/08/29 03:53:37;;;;;;;4.63;3.63;;;11.60;99.90;;;;;;5032955;28;20541;-83
2021/08/29 03:56:04;;;;;;;5.28;3.38;;;11.60;99.90;;;;;;5017659;28;20041;-82
2021/08/29 03:58:32;;;;;;;5.00;3.60;;;11.60;99.90;;;;;;5022061;28;20038;-82
2021/08/29 04:00:58;;;;;;;3.60;3.03;;;11.60;99.90;;;;;;5017624;23;20064;-81
2021/08/29 04:03:24;;;;;;;3.85;3.30;;;11.60;99.90;;;;;;5026353;28;20025;-81
2021/08/29 04:06:13;;;;;;;4.43;3.47;;;11.60;99.90;;;;;;5013679;28;20041;-80
2021/08/29 04:08:44;;;;;;;5.22;3.85;;;11.60;99.90;;;;;;5036696;28;20033;-80
2021/08/29 04:11:12;;;;;;;5.22;3.90;;;11.60;99.90;;;;;;5019679;28;20038;-80
2021/08/29 04:13:39;;;;;;;4.03;3.67;;;11.60;99.90;;;;;;5004501;28;20030;-80
2021/08/29 04:16:20;;;;;;;5.93;3.95;;;11.60;99.90;;;;;;4991311;28;20036;-80
2021/08/29 04:18:52;;;;;;;3.97;3.17;;;11.50;99.90;;;;;;5010182;28;20430;-80
2021/08/29 04:21:23;;;;;;;6.28;4.05;;;11.50;99.90;;;;;;5013571;28;20049;-80
2021/08/29 04:23:49;;;;;;;6.05;3.72;;;11.50;99.90;;;;;;4997605;28;20030;-80
2021/08/29 04:26:15;;;;;;;5.30;4.22;;;11.50;99.90;;;;;;4989588;28;20064;-80
2021/08/29 04:28:43;;;;;;;6.80;4.53;;;11.60;99.90;;;;;;4992602;28;20034;-80
2021/08/29 04:31:17;;;;;;;6.22;3.83;;;11.60;99.90;;;;;;4994744;28;20029;-80
2021/08/29 04:33:52;;;;;;;6.00;4.30;;;11.60;99.90;;;;;;4994168;28;20026;-79
2021/08/29 04:36:39;;;;;;;5.82;4.30;;;11.60;99.90;;;;;;4992695;28;20033;-79
2021/08/29 04:39:20;;;;;;;5.97;4.00;;;11.60;99.90;;;;;;5003753;28;20399;-79
2021/08/29 04:41:46;;;;;;;5.78;3.60;;;11.60;99.90;;;;;;5012991;28;20025;-79
2021/08/29 04:44:12;;;;;;;6.68;4.28;;;11.60;99.90;;;;;;5013534;28;20080;-79
2021/08/29 04:46:39;;;;;;;7.35;3.88;;;11.60;99.90;;;;;;5005229;28;20030;-79
2021/08/29 04:49:07;;;;;;;5.95;4.18;;;11.60;99.90;;;;;;5012989;28;20034;-79
2021/08/29 04:51:33;;;;;;;5.60;3.60;;;11.60;99.90;;;;;;5009660;28;20179;-79
2021/08/29 04:53:58;;;;;;;6.22;4.10;;;11.60;99.90;;;;;;4993728;28;20086;-79
2021/08/29 04:56:24;;;;;;;6.18;3.90;;;11.60;99.90;;;;;;4992716;28;20022;-79
2021/08/29 04:58:50;;;;;;;4.43;3.53;;;11.60;99.90;;;;;;4979320;28;20037;-80
2021/08/29 05:01:17;;;;;;;8.18;4.40;;;11.60;99.90;;;;;;4994658;28;20036;-79
2021/08/29 05:03:45;;;;;;;5.47;3.70;;;11.60;99.90;;;;;;4992149;28;20127;-80
2021/08/29 05:06:13;;;;;;;4.78;3.60;;;11.60;99.90;;;;;;4993776;28;20120;-79
2021/08/29 05:08:38;;;;;;;4.10;2.80;;;11.60;99.90;;;;;;5014802;28;20043;-79
2021/08/29 05:11:05;;;;;;;5.95;3.85;;;11.60;99.90;;;;;;5012533;28;20034;-79
2021/08/29 05:13:34;;;;;;;4.30;2.85;;;11.60;99.90;;;;;;5013618;28;20036;-80
2021/08/29 05:16:00;;;;;;;5.50;3.63;;;11.60;99.90;;;;;;4980341;28;20041;-79
2021/08/29 05:18:25;;;;;;;4.70;2.92;;;11.60;99.90;;;;;;4991228;28;20033;-79
2021/08/29 05:21:23;;;;;;;4.43;3.17;;;11.70;99.90;;;;;;4987795;28;20410;-79
2021/08/29 05:24:08;;;;;;;4.30;3.27;;;11.70;99.90;;;;;;4983595;28;20025;-79
2021/08/29 05:26:49;;;;;;;6.68;3.55;;;11.70;99.90;;;;;;5010816;28;20045;-79
2021/08/29 05:29:15;;;;;;;6.47;3.75;;;11.80;99.90;;;;;;4993030;28;20034;-79
2021/08/29 05:31:42;;;;;;;4.40;3.17;;;11.80;99.90;;;;;;5012472;28;20522;-80
2021/08/29 05:34:09;;;;;;;4.30;3.45;;;11.70;99.90;;;;;;4996775;28;20037;-79
2021/08/29 05:36:35;;;;;;;6.05;3.80;;;11.80;99.90;;;;;;4995398;28;20029;-79
2021/08/29 05:39:01;;;;;;;6.20;4.25;;;11.80;99.90;;;;;;5006459;28;20033;-79
2021/08/29 05:41:33;;;;;;;5.78;4.65;;;11.80;99.90;;;;;;5009036;28;20029;-79
2021/08/29 05:44:18;;;;;;;6.40;3.72;;;11.80;99.90;;;;;;5015205;28;20119;-79
2021/08/29 05:46:44;;;;;;;5.85;4.22;;;11.80;99.90;;;;;;5013071;28;20021;-80
2021/08/29 05:49:10;;;;;;;5.13;3.40;;;11.80;99.90;;;;;;5009515;28;20036;-79
2021/08/29 05:51:36;;;;;;;6.90;4.32;;;11.90;99.90;;;;;;4993360;28;20053;-80
2021/08/29 05:54:03;;;;;;;5.55;3.00;;;11.90;99.90;;;;;;5026138;28;20114;-79
2021/08/29 05:56:29;;;;;;;6.15;3.70;;;11.90;99.90;;;;;;4995561;28;20619;-80
2021/08/29 05:58:56;;;;;;;4.75;3.55;;;11.90;99.90;;;;;;4996179;28;20036;-80
2021/08/29 06:01:21;;;;;;;5.40;3.40;;;11.90;99.90;;;;;;4997843;28;20104;-80
2021/08/29 06:03:47;;;;;;;4.38;3.28;;;11.90;99.90;;;;;;5012690;28;20037;-80
2021/08/29 06:06:48;;;;;;;3.47;2.80;;;11.90;99.90;;;;;;4990281;28;20030;-79
2021/08/29 06:09:14;;;;;;;4.75;3.30;;;12.00;99.90;;;;;;4992488;28;20030;-80
2021/08/29 06:11:40;;;;;;;4.68;3.58;;;12.00;99.90;;;;;;4982158;28;20029;-80
2021/08/29 06:14:06;;;;;;;12.88;2.53;;;12.00;99.90;;;;;;5012628;28;20064;-80
2021/08/29 06:16:33;;;;;;;18.60;3.03;;;12.10;99.90;;;;;;5009667;28;20045;-80
2021/08/29 06:18:58;;;;;;;10.50;2.60;;;12.10;99.90;;;;;;5012292;28;20025;-80
2021/08/29 06:21:25;;;;;;;2.80;2.47;;;12.10;99.90;;;;;;4993780;28;20026;-80
2021/08/29 06:23:51;;;;;;;3.20;2.60;;;12.10;99.90;;;;;;5013103;28;20033;-80
2021/08/29 06:26:49;;;;;;;7.00;2.53;;;12.20;99.90;;;;;;5013558;28;20518;-80
2021/08/29 06:29:37;;;;;;;9.48;2.13;;;12.20;99.90;;;;;;5019152;28;20553;-80
2021/08/29 06:32:21;;;;;;;15.68;2.50;;;12.20;99.90;;;;;;5018311;28;20048;-82
2021/08/29 06:34:52;;;;;;;9.65;3.38;;;12.20;99.90;;;;;;4995846;28;20573;-80
2021/08/29 06:37:29;;;;;;;11.23;5.22;;;12.20;99.90;;;;;;5004278;28;20030;-80
2021/08/29 06:39:56;;;;;;;9.48;4.82;;;12.30;99.90;;;;;;5016018;28;20034;-80
2021/08/29 06:42:21;;;;;;;7.88;5.07;;;12.30;99.90;;;;;;5014995;28;20079;-80
2021/08/29 06:44:55;;;;;;;7.03;4.45;;;12.30;99.90;;;;;;5012877;28;20395;-80
2021/08/29 06:47:39;;;;;;;8.50;5.65;;;12.30;99.90;;;;;;5018653;28;20118;-81
2021/08/29 06:50:38;;;;;;;7.30;4.85;;;12.30;99.90;;;;;;4973414;28;20087;-80
2021/08/29 06:53:41;;;;;;;9.88;5.10;;;12.40;99.90;;;;;;5009235;28;20060;-80
2021/08/29 06:56:25;;;;;;;9.93;5.97;;;12.40;99.90;;;;;;5012899;28;20121;-81
2021/08/29 06:59:18;;;;;;;18.95;5.03;;;12.40;99.90;;;;;;5019720;28;20045;-81
2021/08/29 07:01:44;;;;;;;10.23;4.93;;;12.40;99.90;;;;;;5012773;28;20030;-81
2021/08/29 07:04:09;;;;;;;25.80;4.53;;;12.50;99.90;;;;;;5000822;28;20026;-80
2021/08/29 07:06:36;;;;;;;7.25;4.28;;;12.40;99.90;;;;;;5005617;28;20419;-80
2021/08/29 07:09:07;;;;;;;8.25;4.43;;;12.50;99.90;;;;;;5017852;28;20491;-80
2021/08/29 07:11:33;;;;;;;8.43;5.22;;;12.50;99.90;;;;;;4981452;28;20056;-82
2021/08/29 07:14:28;;;;;;;16.38;4.55;;;12.50;99.90;;;;;;5001323;28;20057;-81
2021/08/29 07:16:54;;;;;;;10.00;4.57;;;12.60;99.90;;;;;;5000336;28;20033;-81
2021/08/29 07:19:20;;;;;;;11.77;4.80;;;12.60;99.90;;;;;;4993652;28;20116;-81
2021/08/29 07:22:05;;;;;;;7.10;4.50;;;12.50;99.90;;;;;;5008344;28;20052;-81
2021/08/29 07:24:49;;;;;;;7.97;4.38;;;12.60;99.90;;;;;;5017542;28;20100;-81
2021/08/29 07:27:34;;;;;;;7.80;4.72;;;12.60;99.90;;;;;;5016523;28;20071;-81
2021/08/29 07:30:22;;;;;;;14.60;5.13;;;12.70;99.90;;;;;;4970494;28;20530;-81
2021/08/29 07:32:57;;;;;;;6.20;4.07;;;12.70;99.90;;;;;;4996946;28;20054;-81
2021/08/29 07:35:22;;;;;;;37.15;4.93;;;12.80;99.90;;;;;;4999801;28;20060;-81
2021/08/29 07:38:06;;;;;;;7.82;4.63;;;12.90;99.90;;;;;;5019970;28;20419;-80
2021/08/29 07:40:36;;;;;;;6.68;4.05;;;12.90;99.90;;;;;;4999196;28;20032;-80
2021/08/29 07:43:01;;;;;;;4.97;3.53;;;13.00;99.90;;;;;;5001057;28;20026;-81
2021/08/29 07:45:28;;;;;;;7.07;4.63;;;13.00;99.90;;;;;;5016353;28;20502;-81
2021/08/29 07:47:54;;;;;;;4.93;3.35;;;13.10;99.90;;;;;;5000214;28;20386;-80
2021/08/29 07:50:22;;;;;;;5.80;3.88;;;13.20;99.90;;;;;;5004736;28;20522;-81
2021/08/29 07:52:48;;;;;;;5.50;3.45;;;13.30;99.90;;;;;;5005678;28;20458;-80
2021/08/29 07:55:43;;;;;;;5.57;3.50;;;13.30;99.90;;;;;;5019454;28;20045;-81
2021/08/29 07:58:21;;;;;;;6.03;3.63;;;13.40;99.90;;;;;;5000868;28;20033;-80
2021/08/29 08:00:50;;;;;;;4.75;3.72;;;13.50;99.90;;;;;;5013615;28;20041;-81
2021/08/29 08:03:35;;;;;;;6.13;4.28;;;13.60;99.90;;;;;;5015495;28;20033;-81
2021/08/29 08:06:07;;;;;;;4.78;3.35;;;13.80;99.90;;;;;;5033804;28;20433;-79
2021/08/29 08:08:53;;;;;;;3.53;2.33;;;13.90;99.90;;;;;;5004719;28;20525;-80
2021/08/29 08:11:37;;;;;;;2.92;2.40;;;14.00;99.90;;;;;;5001535;28;20533;-81
2021/08/29 08:14:04;;;;;;;3.55;3.03;;;14.10;99.90;;;;;;5014607;28;20037;-81
2021/08/29 08:16:30;;;;;;;4.03;2.75;;;14.20;99.90;;;;;;5019783;28;20100;-80
2021/08/29 08:18:57;;;;;;;3.95;2.75;;;14.40;99.90;;;;;;4998755;28;20068;-80
2021/08/29 08:21:24;;;;;;;3.20;2.25;;;14.50;99.90;;;;;;4995614;28;20029;-81
2021/08/29 08:24:12;;;;;;;2.45;2.15;;;14.60;99.90;;;;;;4995380;28;20060;-81
2021/08/29 08:26:40;;;;;;;2.58;2.20;;;14.60;99.90;;;;;;5016705;28;20038;-81
2021/08/29 08:29:26;;;;;;;2.78;2.45;;;14.70;99.90;;;;;;5016936;28;20056;-81
2021/08/29 08:32:10;;;;;;;2.20;1.80;;;14.80;99.90;;;;;;5015508;28;20064;-81
2021/08/29 08:35:02;;;;;;;2.30;2.10;;;14.80;99.90;;;;;;5017279;28;20659;-81
2021/08/29 08:37:37;;;;;;;2.00;1.80;;;14.90;99.90;;;;;;5013098;28;20046;-81
2021/08/29 08:40:23;;;;;;;;;;;14.90;99.90;;;;;;5012656;28;20037;-81
2021/08/29 08:42:52;;;;;;;4.95;3.30;;;14.90;99.90;;;;;;5015131;28;19920;-80
2021/08/29 08:45:38;;;;;;;5.13;3.80;;;14.90;99.90;;;;;;5033324;28;20418;-80
2021/08/29 08:48:27;;;;;;;4.18;3.35;;;14.80;99.90;;;;;;5015000;28;20037;-80
2021/08/29 08:51:12;;;;;;;5.25;3.00;;;14.60;99.90;;;;;;5018788;28;20063;-81
2021/08/29 08:53:59;;;;;;;3.45;2.67;;;14.40;99.90;;;;;;4998065;28;20077;-82
2021/08/29 08:57:04;;;;;;;4.18;3.05;;;14.30;99.90;;;;;;4944093;28;20028;-83
2021/08/29 09:00:06;;;;;;;3.92;3.15;;;14.20;99.90;;;;;;4883898;29;20677;-80
2021/08/29 09:02:51;;;;;;;4.07;2.95;;;14.10;99.90;;;;;;5006355;28;20068;-80
2021/08/29 09:05:33;;;;;;;3.60;2.88;;;14.00;99.90;;;;;;5001719;28;20025;-82
2021/08/29 09:08:14;;;;;;;3.08;2.13;;;14.00;99.90;;;;;;5010105;28;20037;-85
2021/08/29 09:10:40;;;;;;;3.08;2.78;;;14.00;99.90;;;;;;4994296;28;20041;-82
2021/08/29 09:13:08;;;;;;;3.10;2.75;;;14.10;99.90;;;;;;5011883;28;20038;-82
2021/08/29 09:15:34;;;;;;;6.72;3.22;;;14.10;99.90;;;;;;4992293;28;20063;-84
2021/08/29 09:18:00;;;;;;;2.78;2.50;;;14.20;99.90;;;;;;4994721;28;20057;-83
2021/08/29 09:20:36;;;;;;;2.72;2.20;;;14.30;99.90;;;;;;5007880;28;20025;-83
2021/08/29 09:23:07;;;;;;;3.00;2.70;;;14.40;99.90;;;;;;5005164;28;20103;-83
2021/08/29 09:25:45;;;;;;;3.17;2.58;;;14.40;99.90;;;;;;4993812;28;20049;-83
2021/08/29 09:28:33;;;;;;;3.65;2.90;;;14.60;99.90;;;;;;4999429;28;20447;-80
2021/08/29 09:31:07;;;;;;;5.22;3.25;;;14.70;99.90;;;;;;4994569;28;20084;-83
2021/08/29 09:33:33;;;;;;;3.85;3.30;;;14.70;99.90;;;;;;4976917;28;20025;-83
2021/08/29 09:36:02;;;;;;;3.28;2.95;;;14.70;99.90;;;;;;5006775;28;20391;-83
2021/08/29 09:38:48;;;;;;;4.03;3.13;;;14.70;99.90;;;;;;5018537;28;20092;-83
2021/08/29 09:41:30;;;;;;;4.18;3.17;;;14.80;99.90;;;;;;4977228;28;20030;-83
2021/08/29 09:44:19;;;;;;;4.13;3.13;;;14.80;99.90;;;;;;5007981;28;20462;-81
2021/08/29 09:46:58;;;;;;;4.00;3.30;;;14.80;99.90;;;;;;5012763;28;20058;-81
2021/08/29 09:49:49;;;;;;;2.72;2.47;;;14.70;99.90;;;;;;5015657;28;20068;-80
2021/08/29 09:52:27;;;;;;;4.75;2.47;;;14.80;99.90;;;;;;5013206;28;20025;-81
2021/08/29 09:55:12;;;;;;;4.25;2.58;;;14.80;99.90;;;;;;5033092;28;20044;-81
2021/08/29 09:58:27;;;;;;;2.60;2.40;;;14.80;99.90;;;;;;5015845;28;20029;-81
2021/08/29 10:01:25;;;;;;;2.85;2.50;;;14.80;99.90;;;;;;5002835;28;20030;-81
2021/08/29 10:04:26;;;;;;;2.97;2.15;;;14.80;99.90;;;;;;4945597;29;20042;-80
2021/08/29 10:07:07;;;;;;;2.65;2.28;;;14.70;99.90;;;;;;5003586;23;20046;-82
2021/08/29 10:09:33;;;;;;;2.50;2.30;;;14.70;99.90;;;;;;5030397;28;20028;-82
2021/08/29 10:12:09;;;;;;;2.27;2.03;;;14.50;99.90;;;;;;4987579;28;20037;-80
2021/08/29 10:14:36;;;;;;;2.13;1.92;;;14.50;99.90;;;;;;5000964;28;20037;-81
2021/08/29 10:17:21;;;;;;;3.25;1.75;;;14.50;99.90;;;;;;5015694;28;20106;-81
2021/08/29 10:20:06;;;;;;;1.98;1.77;;;14.60;99.90;;;;;;5004424;28;20843;-81
2021/08/29 10:22:51;;;;;;;1.95;1.70;;;14.60;99.90;;;;;;4999476;28;20049;-81
2021/08/29 10:25:19;;;;;;;2.08;1.92;;;14.70;99.90;;;;;;5015280;28;20025;-81
2021/08/29 10:27:55;;;;;;;2.08;1.88;;;14.70;99.90;;;;;;4980411;28;20061;-83
2021/08/29 10:30:42;;;;;;;2.83;2.50;;;14.70;99.90;;;;;;5016509;28;20030;-81
2021/08/29 10:33:48;;;;;;;2.60;2.40;;;14.90;99.90;;;;;;4998709;28;20045;-81
2021/08/29 10:36:16;;;;;;;2.03;1.83;;;15.20;99.90;;;;;;5004554;28;20037;-81
2021/08/29 10:39:08;;;;;;;2.00;1.85;;;15.40;99.90;;;;;;5030771;28;20092;-81
2021/08/29 10:41:53;;;;;;;2.30;2.10;;;15.50;99.90;;;;;;5027770;28;20048;-81
2021/08/29 10:44:25;;;;;;;2.53;2.28;;;15.70;99.90;;;;;;4993744;28;20430;-82
2021/08/29 10:47:10;;;;;;;4.30;2.78;;;15.60;99.90;;;;;;5032908;28;20052;-81
2021/08/29 10:50:07;;;;;;;3.10;2.63;;;15.50;99.90;;;;;;4993143;28;20121;-81
2021/08/29 10:52:35;;;;;;;4.00;3.58;;;15.50;99.90;;;;;;4995434;28;20038;-81
2021/08/29 10:55:06;;;;;;;2.83;2.58;;;15.40;99.90;;;;;;5001471;28;20026;-82
2021/08/29 10:57:41;;;;;;;2.55;1.65;;;15.50;99.90;;;;;;5030268;28;20033;-81
2021/08/29 11:00:18;;;;;;;1.55;1.45;;;15.40;99.90;;;;;;5031527;28;20071;-82
2021/08/29 11:02:49;;;;;;;1.88;1.77;;;15.30;99.90;;;;;;5011939;28;20026;-80
2021/08/29 11:05:40;;;;;;;;;;;15.40;99.90;;;;;;5020108;28;20394;-80
2021/08/29 11:08:28;;;;;;;1.38;1.10;;;15.50;99.90;;;;;;5014203;28;20004;-80
2021/08/29 11:10:56;;;;;;;0.80;0.80;;;15.50;99.90;;;;;;5012748;28;20030;-79
2021/08/29 11:13:28;;;;;;;0.70;0.70;;;15.50;99.90;;;;;;5014823;28;20099;-79
2021/08/29 11:16:11;;;;;;;0.73;0.73;;;15.70;99.90;;;;;;5015162;28;20060;-80
2021/08/29 11:19:00;;;;;;;0.85;0.85;;;15.60;99.90;;;;;;5030490;28;20038;-80
2021/08/29 11:21:37;;;;;;;0.73;0.73;;;15.60;99.90;;;;;;5030840;28;20029;-81
2021/08/29 11:24:53;;;;;;;;;;;15.70;99.90;;;;;;4979821;28;20030;-82
2021/08/29 11:27:59;;;;;;;1.10;1.00;;;15.70;99.90;;;;;;5030523;28;19909;-81
2021/08/29 11:30:36;;;;;;;;;;;15.80;99.90;;;;;;5014995;28;20095;-80
2021/08/29 11:33:12;;;;;;;1.20;1.10;;;15.80;99.90;;;;;;5031268;28;19915;-80
2021/08/29 11:35:49;;;;;;;1.10;1.00;;;15.90;99.90;;;;;;5014589;28;20120;-80
2021/08/29 11:38:37;;;;;;;0.80;0.80;;;15.90;99.90;;;;;;5028124;28;20030;-81
2021/08/29 11:41:10;;;;;;;1.10;0.77;;;15.90;99.90;;;;;;4993399;28;20026;-80
2021/08/29 11:43:39;;;;;;;0.73;0.43;;;15.90;99.90;;;;;;5011260;28;20057;-80
2021/08/29 11:46:18;;;;;;;1.80;0.73;;;15.90;99.90;;;;;;5002216;28;20085;-81
2021/08/29 11:49:04;;;;;;;0.60;0.60;;;15.90;99.90;;;;;;5024821;28;20029;-81
2021/08/29 11:51:35;;;;;;;0.70;0.70;;;15.90;99.90;;;;;;5010487;28;20033;-81
2021/08/29 11:54:09;;;;;;;0.55;0.50;;;15.90;99.90;;;;;;5010344;28;20137;-80
2021/08/29 11:56:38;;;;;;;0.55;0.43;;;15.90;99.90;;;;;;4994216;28;20060;-82
2021/08/29 11:59:08;;;;;;;0.50;0.50;;;16.00;99.90;;;;;;5009742;28;20048;-82
2021/08/29 12:01:35;;;;;;;0.73;0.60;;;16.10;99.90;;;;;;5010023;28;20022;-81
2021/08/29 12:04:03;;;;;;;0.63;0.60;;;16.20;99.90;;;;;;5027990;28;20052;-82
2021/08/29 12:06:55;;;;;;;;;;;16.20;99.90;;;;;;4996897;28;20076;-82
2021/08/29 12:09:41;;;;;;;0.60;0.55;;;16.20;99.90;;;;;;5023559;28;20060;-81
2021/08/29 12:12:33;;;;;;;0.50;0.50;;;16.20;99.90;;;;;;4994080;28;20391;-81
2021/08/29 12:15:18;;;;;;;1.80;0.55;;;16.20;99.90;;;;;;5026963;28;20057;-84
2021/08/29 12:18:05;;;;;;;0.50;0.50;;;16.10;99.90;;;;;;5022494;28;20044;-82
2021/08/29 12:20:34;;;;;;;0.40;0.40;;;16.10;99.90;;;;;;4993985;28;20509;-82
2021/08/29 12:23:19;;;;;;;0.93;0.60;;;16.00;99.90;;;;;;5027903;28;20048;-81
2021/08/29 12:25:55;;;;;;;0.30;0.30;;;16.00;99.90;;;;;;4997759;28;20029;-80
2021/08/29 12:28:21;;;;;;;0.57;0.50;;;15.80;99.90;;;;;;5010175;28;20052;-80
2021/08/29 12:30:52;;;;;;;0.40;0.40;;;15.70;99.90;;;;;;5012096;28;20064;-79
2021/08/29 12:33:18;;;;;;;0.43;0.40;;;15.60;99.90;;;;;;5013553;28;20034;-80
2021/08/29 12:35:48;;;;;;;2.67;0.50;;;15.50;99.90;;;;;;5010162;28;20072;-83
2021/08/29 12:38:21;;;;;;;0.45;0.45;;;15.40;99.90;;;;;;5009440;28;20026;-79
2021/08/29 12:40:47;;;;;;;0.60;0.60;;;15.30;99.90;;;;;;4996175;28;20083;-80
2021/08/29 12:43:14;;;;;;;0.60;0.50;;;15.30;99.90;;;;;;5011858;28;20450;-80
2021/08/29 12:45:41;;;;;;;0.38;0.38;;;15.20;99.90;;;;;;5013357;28;20021;-82
2021/08/29 12:48:07;;;;;;;0.82;0.82;;;15.30;99.90;;;;;;4994905;28;20045;-81
2021/08/29 12:50:46;;;;;;;1.35;1.25;;;15.20;99.90;;;;;;5010531;28;20061;-81
2021/08/29 12:53:12;;;;;;;1.52;1.42;;;15.10;99.90;;;;;;5029226;28;20045;-81
2021/08/29 12:55:40;;;;;;;2.63;2.30;;;15.10;99.90;;;;;;4996127;28;20037;-81
2021/08/29 12:58:12;;;;;;;2.22;2.03;;;15.00;99.90;;;;;;5011089;28;20037;-82
2021/08/29 13:00:40;;;;;;;1.95;1.65;;;14.90;99.90;;;;;;5010485;28;20660;-81
2021/08/29 13:03:07;;;;;;;2.25;1.85;;;14.80;99.90;;;;;;5028415;28;20029;-83
2021/08/29 13:05:38;;;;;;;1.75;1.65;;;14.80;99.90;;;;;;5012925;28;20434;-81
2021/08/29 13:08:04;;;;;;;2.28;2.00;;;14.70;99.90;;;;;;5008587;28;20116;-82
2021/08/29 13:10:30;;;;;;;3.38;2.53;;;14.60;99.90;;;;;;4995443;28;20037;-81
2021/08/29 13:13:12;;;;;;;2.78;2.50;;;14.50;99.90;;;;;;5025415;28;20032;-81
2021/08/29 13:15:40;;;;;;;2.42;2.22;;;14.50;99.90;;;;;;4995677;28;20034;-82
2021/08/29 13:18:08;;;;;;;2.10;1.90;;;14.40;99.90;;;;;;5011648;28;20519;-80
2021/08/29 13:20:42;;;;;;;3.13;2.28;;;14.40;99.90;;;;;;5009528;28;20035;-82
2021/08/29 13:23:28;;;;;;;2.28;1.80;;;14.40;99.90;;;;;;5027654;28;20124;-83